Time,TemperatureF,DewpointF,PressureIn,WindDirection,WindDirectionDegrees,WindSpeedMPH,WindSpeedGustMPH,Humidity,HourlyPrecipIn,Conditions,Clouds,dailyrainin,SolarRadiationWatts/m^2,SoftwareType,DateUTC
2013-11-22 00:07:00,46.9,43.0,30.40,SSE,165,0.0,-999.0,87,-99.99,,,0.00,0,weatherlink.com 1.10,2013-11-22 05:07:00,
2013-11-22 00:22:00,46.9,43.0,30.39,SSE,165,0.0,-999.0,87,-99.99,,,0.00,0,weatherlink.com 1.10,2013-11-22 05:22:00,
2013-11-22 00:37:00,46.9,43.0,30.39,SSE,165,0.0,-999.0,87,-99.99,,,0.00,0,weatherlink.com 1.10,2013-11-22 05:37:00,
2013-11-22 00:52:00,47.0,43.0,30.38,SSE,165,0.0,-999.0,87,-99.99,,,0.00,0,weatherlink.com 1.10,2013-11-22 05:52:00,
2013-11-22 01:07:00,47.0,43.0,30.39,SSE,165,0.0,-999.0,87,-99.99,,,0.00,0,weatherlink.com 1.10,2013-11-22 06:07:00,
2013-11-22 01:22:00,47.1,44.0,30.38,SSE,165,0.0,-999.0,87,-99.99,,,0.00,0,weatherlink.com 1.10,2013-11-22 06:22:00,
2013-11-22 01:37:00,47.2,44.0,30.37,SSE,165,0.0,-999.0,87,-99.99,,,0.00,0,weatherlink.com 1.10,2013-11-22 06:37:00,
2013-11-22 01:52:00,47.2,44.0,30.36,SSE,165,0.0,-999.0,88,-99.99,,,0.00,0,weatherlink.com 1.10,2013-11-22 06:52:00,
2013-11-22 02:08:00,47.2,44.0,30.36,SSE,165,0.0,-999.0,87,-99.99,,,0.00,0,weatherlink.com 1.10,2013-11-22 07:08:00,
2013-11-22 02:23:00,47.1,43.0,30.34,SSE,165,0.0,-999.0,86,-99.99,,,0.00,0,weatherlink.com 1.10,2013-11-22 07:23:00,
2013-11-22 02:38:00,46.7,43.0,30.33,SSE,165,0.0,-999.0,85,-99.99,,,0.00,0,weatherlink.com 1.10,2013-11-22 07:38:00,
2013-11-22 02:53:00,45.9,43.0,30.34,SSE,165,0.0,-999.0,88,-99.99,,,0.00,0,weatherlink.com 1.10,2013-11-22 07:53:00,
2013-11-22 03:08:00,45.5,42.0,30.32,SSE,165,0.0,-999.0,88,-99.99,,,0.00,0,weatherlink.com 1.10,2013-11-22 08:08:00,
2013-11-22 03:23:00,45.7,43.0,30.31,SSE,165,0.0,-999.0,89,-99.99,,,0.00,0,weatherlink.com 1.10,2013-11-22 08:23:00,
2013-11-22 03:38:00,45.8,43.0,30.32,SSE,165,0.0,-999.0,89,-99.99,,,0.00,0,weatherlink.com 1.10,2013-11-22 08:38:00,
2013-11-22 03:53:00,46.0,43.0,30.31,SSE,165,0.0,-999.0,89,-99.99,,,0.00,0,weatherlink.com 1.10,2013-11-22 08:53:00,
2013-11-22 04:08:00,46.2,43.0,30.30,SSE,165,0.0,-999.0,89,-99.99,,,0.00,0,weatherlink.com 1.10,2013-11-22 09:08:00,
2013-11-22 04:23:00,46.3,43.0,30.30,SSE,165,0.0,-999.0,89,-99.99,,,0.00,0,weatherlink.com 1.10,2013-11-22 09:23:00,
2013-11-22 04:38:00,46.4,44.0,30.29,SSE,165,0.0,-999.0,90,-99.99,,,0.00,0,weatherlink.com 1.10,2013-11-22 09:38:00,
2013-11-22 04:53:00,46.6,44.0,30.29,SSE,165,0.0,-999.0,89,-99.99,,,0.00,0,weatherlink.com 1.10,2013-11-22 09:53:00,
2013-11-22 05:08:00,46.6,44.0,30.28,SSE,165,0.0,-999.0,89,-99.99,,,0.00,0,weatherlink.com 1.10,2013-11-22 10:08:00,
2013-11-22 05:23:00,46.9,44.0,30.28,SSE,165,0.0,-999.0,90,-99.99,,,0.00,0,weatherlink.com 1.10,2013-11-22 10:23:00,
2013-11-22 05:38:00,47.2,45.0,30.27,SSE,165,0.0,-999.0,91,-99.99,,,0.00,0,weatherlink.com 1.10,2013-11-22 10:38:00,
2013-11-22 05:53:00,47.8,46.0,30.26,SSE,165,0.0,-999.0,92,-99.99,,,0.00,0,weatherlink.com 1.10,2013-11-22 10:53:00,
2013-11-22 06:08:00,48.1,46.0,30.26,SSE,165,0.0,-999.0,91,-99.99,,,0.00,0,weatherlink.com 1.10,2013-11-22 11:08:00,
2013-11-22 06:23:00,48.2,46.0,30.25,SSE,165,2.0,-999.0,92,-99.99,,,0.00,0,weatherlink.com 1.10,2013-11-22 11:23:00,
2013-11-22 06:38:00,48.4,46.0,30.25,SSW,201,2.0,-999.0,92,-99.99,,,0.00,0,weatherlink.com 1.10,2013-11-22 11:38:00,
2013-11-22 06:53:00,48.5,47.0,30.25,SSW,201,0.0,-999.0,93,-99.99,,,0.00,0,weatherlink.com 1.10,2013-11-22 11:53:00,
2013-11-22 07:08:00,48.7,47.0,30.24,SSE,161,1.0,-999.0,93,-99.99,,,0.00,0,weatherlink.com 1.10,2013-11-22 12:08:00,
2013-11-22 07:23:00,49.2,48.0,30.24,SW,221,3.0,-999.0,94,-99.99,,,0.00,18,weatherlink.com 1.10,2013-11-22 12:23:00,
2013-11-22 07:38:00,49.6,48.0,30.24,South,188,2.0,-999.0,94,-99.99,,,0.00,21,weatherlink.com 1.10,2013-11-22 12:38:00,
2013-11-22 07:53:00,49.9,49.0,30.23,SSW,210,1.0,-999.0,95,-99.99,,,0.00,26,weatherlink.com 1.10,2013-11-22 12:53:00,
2013-11-22 08:08:00,50.1,49.0,30.22,South,184,2.0,-999.0,95,-99.99,,,0.00,16,weatherlink.com 1.10,2013-11-22 13:08:00,
2013-11-22 08:23:00,50.3,49.0,30.21,WSW,242,1.0,-999.0,96,-99.99,,,0.00,58,weatherlink.com 1.10,2013-11-22 13:23:00,
2013-11-22 08:38:00,50.9,50.0,30.21,SSW,193,3.0,-999.0,96,-99.99,,,0.00,47,weatherlink.com 1.10,2013-11-22 13:38:00,
2013-11-22 08:53:00,51.7,51.0,30.21,SSW,211,1.0,-999.0,96,-99.99,,,0.00,93,weatherlink.com 1.10,2013-11-22 13:53:00,
2013-11-22 09:08:00,52.7,51.0,30.21,South,190,3.0,-999.0,95,-99.99,,,0.00,49,weatherlink.com 1.10,2013-11-22 14:08:00,
2013-11-22 09:23:00,53.0,51.0,30.20,West,265,2.0,-999.0,93,-99.99,,,0.00,33,weatherlink.com 1.10,2013-11-22 14:23:00,
2013-11-22 09:38:00,53.1,51.0,30.19,SSW,200,3.0,-999.0,93,-99.99,,,0.00,33,weatherlink.com 1.10,2013-11-22 14:38:00,
2013-11-22 09:53:00,53.1,51.0,30.19,SW,215,3.0,-999.0,93,-99.99,,,0.00,40,weatherlink.com 1.10,2013-11-22 14:53:00,
2013-11-22 10:08:00,53.3,52.0,30.18,SSW,208,4.0,-999.0,94,-99.99,,,0.00,72,weatherlink.com 1.10,2013-11-22 15:08:00,
2013-11-22 10:24:00,53.5,52.0,30.17,SSW,210,3.0,-999.0,94,-99.99,,,0.00,93,weatherlink.com 1.10,2013-11-22 15:24:00,
2013-11-22 10:39:00,53.6,52.0,30.17,WSW,238,3.0,-999.0,94,-99.99,,,0.00,69,weatherlink.com 1.10,2013-11-22 15:39:00,
2013-11-22 10:54:00,53.3,52.0,30.16,SW,227,1.0,-999.0,94,-99.99,,,0.00,86,weatherlink.com 1.10,2013-11-22 15:54:00,
2013-11-22 11:09:00,53.6,52.0,30.14,SSW,192,2.0,-999.0,94,-99.99,,,0.00,199,weatherlink.com 1.10,2013-11-22 16:09:00,
2013-11-22 11:24:00,53.9,51.0,30.14,West,275,4.0,-999.0,91,-99.99,,,0.00,97,weatherlink.com 1.10,2013-11-22 16:24:00,
2013-11-22 11:39:00,54.5,52.0,30.13,SSW,208,3.0,-999.0,91,-99.99,,,0.00,237,weatherlink.com 1.10,2013-11-22 16:39:00,
2013-11-22 11:54:00,54.8,51.0,30.12,West,280,3.0,-999.0,88,-99.99,,,0.00,111,weatherlink.com 1.10,2013-11-22 16:54:00,
2013-11-22 12:09:00,55.1,52.0,30.11,SW,215,2.0,-999.0,88,-99.99,,,0.00,218,weatherlink.com 1.10,2013-11-22 17:09:00,
2013-11-22 12:24:00,55.9,52.0,30.11,SSW,202,5.0,-999.0,85,-99.99,,,0.00,216,weatherlink.com 1.10,2013-11-22 17:24:00,
2013-11-22 12:39:00,56.4,51.0,30.09,WNW,298,4.0,-999.0,83,-99.99,,,0.00,188,weatherlink.com 1.10,2013-11-22 17:39:00,
2013-11-22 12:54:00,56.7,51.0,30.10,WNW,284,4.0,-999.0,81,-99.99,,,0.00,185,weatherlink.com 1.10,2013-11-22 17:54:00,
2013-11-22 13:09:00,56.6,51.0,30.09,West,259,5.0,-999.0,81,-99.99,,,0.00,86,weatherlink.com 1.10,2013-11-22 18:09:00,
2013-11-22 13:24:00,56.3,51.0,30.08,WSW,248,5.0,-999.0,81,-99.99,,,0.00,116,weatherlink.com 1.10,2013-11-22 18:24:00,
2013-11-22 13:39:00,56.0,50.0,30.08,West,280,4.0,-999.0,81,-99.99,,,0.00,148,weatherlink.com 1.10,2013-11-22 18:39:00,
2013-11-22 13:54:00,56.3,51.0,30.07,West,263,1.0,-999.0,81,-99.99,,,0.00,132,weatherlink.com 1.10,2013-11-22 18:54:00,
2013-11-22 14:09:00,56.5,50.0,30.06,WSW,237,3.0,-999.0,80,-99.99,,,0.00,158,weatherlink.com 1.10,2013-11-22 19:09:00,
2013-11-22 14:24:00,57.3,51.0,30.06,SSW,195,5.0,-999.0,79,-99.99,,,0.00,125,weatherlink.com 1.10,2013-11-22 19:24:00,
2013-11-22 14:39:00,57.4,51.0,30.05,West,259,4.0,-999.0,79,-99.99,,,0.00,49,weatherlink.com 1.10,2013-11-22 19:39:00,
2013-11-22 14:54:00,57.6,51.0,30.05,WSW,243,1.0,-999.0,79,-99.99,,,0.00,165,weatherlink.com 1.10,2013-11-22 19:54:00,
2013-11-22 15:09:00,58.0,51.0,30.05,SSW,208,1.0,-999.0,78,-99.99,,,0.00,104,weatherlink.com 1.10,2013-11-22 20:09:00,
2013-11-22 15:24:00,57.7,51.0,30.05,SSW,205,3.0,-999.0,78,-99.99,,,0.00,81,weatherlink.com 1.10,2013-11-22 20:24:00,
2013-11-22 15:39:00,57.0,51.0,30.04,WSW,244,2.0,-999.0,79,-99.99,,,0.00,51,weatherlink.com 1.10,2013-11-22 20:39:00,
2013-11-22 15:55:00,56.4,50.0,30.04,SW,227,3.0,-999.0,80,-99.99,,,0.00,32,weatherlink.com 1.10,2013-11-22 20:55:00,
2013-11-22 16:09:00,55.9,50.0,30.04,SW,219,1.0,-999.0,81,-99.99,,,0.00,16,weatherlink.com 1.10,2013-11-22 21:09:00,
2013-11-22 16:24:00,55.5,50.0,30.02,SSW,208,1.0,-999.0,82,-99.99,,,0.00,0,weatherlink.com 1.10,2013-11-22 21:24:00,
2013-11-22 16:39:00,55.0,50.0,30.02,SSW,207,2.0,-999.0,84,-99.99,,,0.00,0,weatherlink.com 1.10,2013-11-22 21:39:00,
2013-11-22 16:54:00,54.6,50.0,30.02,SSW,207,1.0,-999.0,85,-99.99,,,0.00,0,weatherlink.com 1.10,2013-11-22 21:54:00,
2013-11-22 17:09:00,54.1,50.0,30.02,SW,229,0.0,-999.0,87,-99.99,,,0.00,0,weatherlink.com 1.10,2013-11-22 22:09:00,
2013-11-22 17:24:00,53.6,50.0,30.02,SSW,206,1.0,-999.0,88,-99.99,,,0.00,0,weatherlink.com 1.10,2013-11-22 22:24:00,
2013-11-22 17:39:00,53.5,50.0,30.01,SW,227,2.0,-999.0,89,-99.99,,,0.00,0,weatherlink.com 1.10,2013-11-22 22:39:00,
2013-11-22 17:54:00,53.2,50.0,30.01,SW,221,1.0,-999.0,89,-99.99,,,0.00,0,weatherlink.com 1.10,2013-11-22 22:54:00,
2013-11-22 18:09:00,52.9,50.0,30.01,SW,214,2.0,-999.0,90,-99.99,,,0.00,0,weatherlink.com 1.10,2013-11-22 23:09:00,
2013-11-22 18:24:00,52.6,50.0,30.00,South,191,1.0,-999.0,90,-99.99,,,0.00,0,weatherlink.com 1.10,2013-11-22 23:24:00,
2013-11-22 18:39:00,52.2,50.0,29.99,SSW,192,1.0,-999.0,91,-99.99,,,0.00,0,weatherlink.com 1.10,2013-11-22 23:39:00,
2013-11-22 18:54:00,52.1,50.0,30.00,SSW,207,1.0,-999.0,92,-99.99,,,0.00,0,weatherlink.com 1.10,2013-11-22 23:54:00,
2013-11-22 19:10:00,51.9,50.0,30.00,WSW,238,0.0,-999.0,92,-99.99,,,0.00,0,weatherlink.com 1.10,2013-11-23 00:10:00,
2013-11-22 19:25:00,51.9,50.0,29.99,SSW,198,2.0,-999.0,93,-99.99,,,0.00,0,weatherlink.com 1.10,2013-11-23 00:25:00,
2013-11-22 19:40:00,52.0,50.0,29.99,SSW,198,3.0,-999.0,93,-99.99,,,0.00,0,weatherlink.com 1.10,2013-11-23 00:40:00,
2013-11-22 19:55:00,51.9,50.0,29.99,SW,217,2.0,-999.0,93,-99.99,,,0.00,0,weatherlink.com 1.10,2013-11-23 00:55:00,
2013-11-22 20:10:00,51.9,50.0,29.99,SSW,205,1.0,-999.0,93,-99.99,,,0.00,0,weatherlink.com 1.10,2013-11-23 01:10:00,
2013-11-22 20:25:00,52.0,50.0,29.99,SW,220,2.0,-999.0,93,-99.99,,,0.00,0,weatherlink.com 1.10,2013-11-23 01:25:00,
2013-11-22 20:40:00,52.0,50.0,29.98,SW,219,2.0,-999.0,93,-99.99,,,0.00,0,weatherlink.com 1.10,2013-11-23 01:40:00,
2013-11-22 20:55:00,52.0,50.0,29.98,SW,219,1.0,-999.0,93,-99.99,,,0.00,0,weatherlink.com 1.10,2013-11-23 01:55:00,
2013-11-22 21:10:00,51.9,50.0,29.97,SW,219,1.0,-999.0,93,-99.99,,,0.00,0,weatherlink.com 1.10,2013-11-23 02:10:00,
2013-11-22 21:25:00,51.9,50.0,29.96,SSW,205,2.0,-999.0,94,-99.99,,,0.00,0,weatherlink.com 1.10,2013-11-23 02:25:00,
2013-11-22 21:40:00,52.1,51.0,29.96,SSW,192,3.0,-999.0,94,-99.99,,,0.00,0,weatherlink.com 1.10,2013-11-23 02:40:00,
2013-11-22 21:55:00,52.2,51.0,29.95,WSW,242,4.0,-999.0,94,-99.99,,,0.00,0,weatherlink.com 1.10,2013-11-23 02:55:00,
2013-11-22 22:10:00,52.4,51.0,29.95,SSW,192,0.0,-999.0,94,-99.99,,,0.00,0,weatherlink.com 1.10,2013-11-23 03:10:00,
2013-11-22 22:25:00,52.3,51.0,29.94,SSW,197,2.0,-999.0,94,-99.99,,,0.00,0,weatherlink.com 1.10,2013-11-23 03:25:00,
2013-11-22 22:40:00,52.2,51.0,29.94,West,265,1.0,-999.0,95,-99.99,,,0.00,0,weatherlink.com 1.10,2013-11-23 03:40:00,
2013-11-22 22:55:00,52.3,51.0,29.94,West,265,3.0,-999.0,95,-99.99,,,0.00,0,weatherlink.com 1.10,2013-11-23 03:55:00,
2013-11-22 23:10:00,52.4,51.0,29.94,West,263,3.0,-999.0,95,-99.99,,,0.00,0,weatherlink.com 1.10,2013-11-23 04:10:00,
2013-11-22 23:25:00,52.7,51.0,29.94,West,259,1.0,-999.0,95,-99.99,,,0.00,0,weatherlink.com 1.10,2013-11-23 04:25:00,
2013-11-22 23:40:00,53.0,51.0,29.94,WSW,258,2.0,-999.0,94,-99.99,,,0.00,0,weatherlink.com 1.10,2013-11-23 04:40:00,
2013-11-22 23:55:00,52.9,51.0,29.94,WSW,252,3.0,-999.0,94,-99.99,,,0.00,0,weatherlink.com 1.10,2013-11-23 04:55:00,